Time;durP1;ratioP1;P1;durP2;ratioP2;P2;SDS_P1;SDS_P2;PMS_P1;PMS_P2;Temp;Humidity;BMP_temperature;BMP_pressure;BME280_temperature;BME280_humidity;BME280_pressure;Samples;Min_cycle;Max_cycle;Signal;HPM_P1;HPM_P2
2022/09/09 00:02:00;;;;;;;5.03;4.67;;;;;;;;;;5073161;28;20470;-58
2022/09/09 00:04:29;;;;;;;4.03;3.83;;;;;;;;;;5073423;28;20454;-57
2022/09/09 00:07:07;;;;;;;4.10;3.90;;;;;;;;;;5073342;28;20443;-57
2022/09/09 00:09:37;;;;;;;3.90;3.70;;;;;;;;;;5073001;28;20475;-57
2022/09/09 00:12:08;;;;;;;5.87;4.33;;;;;;;;;;5073174;28;20535;-57
2022/09/09 00:14:38;;;;;;;4.37;4.17;;;;;;;;;;5072772;28;20459;-58
2022/09/09 00:17:09;;;;;;;4.30;3.90;;;;;;;;;;5073275;28;20455;-56
2022/09/09 00:19:41;;;;;;;4.50;4.17;;;;;;;;;;5072802;28;21034;-57
2022/09/09 00:22:15;;;;;;;5.30;4.27;;;;;;;;;;5073171;28;20516;-57
2022/09/09 00:24:44;;;;;;;4.40;4.10;;;;;;;;;;5072999;28;20450;-58
2022/09/09 00:27:16;;;;;;;3.57;3.37;;;;;;;;;;5072884;28;20470;-57
2022/09/09 00:29:45;;;;;;;4.30;3.90;;;;;;;;;;5072765;28;20509;-58
2022/09/09 00:32:14;;;;;;;4.00;3.80;;;;;;;;;;5073033;28;20849;-57
2022/09/09 00:34:44;;;;;;;4.40;4.10;;;;;;;;;;5072953;28;20538;-57
2022/09/09 00:37:11;;;;;;;4.17;3.97;;;;;;;;;;5072940;28;20447;-58
2022/09/09 00:39:41;;;;;;;3.90;3.60;;;;;;;;;;5072694;28;20447;-57
2022/09/09 00:42:14;;;;;;;4.37;4.07;;;;;;;;;;5072723;28;20974;-57
2022/09/09 00:44:47;;;;;;;4.60;4.30;;;;;;;;;;5072819;28;20939;-57
2022/09/09 00:47:19;;;;;;;4.20;3.90;;;;;;;;;;5072644;28;20466;-58
2022/09/09 00:49:55;;;;;;;4.13;3.70;;;;;;;;;;5072566;28;20483;-57
2022/09/09 00:52:29;;;;;;;4.03;3.80;;;;;;;;;;5072619;28;20957;-58
2022/09/09 00:55:02;;;;;;;4.30;3.90;;;;;;;;;;5072880;28;20509;-57
2022/09/09 00:57:31;;;;;;;4.23;3.93;;;;;;;;;;5072623;28;21000;-58
2022/09/09 00:59:59;;;;;;;4.33;4.00;;;;;;;;;;5072582;28;20455;-58
2022/09/09 01:02:29;;;;;;;3.77;3.57;;;;;;;;;;5072489;28;20452;-57
2022/09/09 01:05:01;;;;;;;4.73;4.20;;;;;;;;;;5072810;28;20469;-57
2022/09/09 01:07:28;;;;;;;4.87;4.40;;;;;;;;;;5072840;28;20517;-57
2022/09/09 01:09:57;;;;;;;4.40;4.07;;;;;;;;;;5072535;28;20479;-57
2022/09/09 01:12:26;;;;;;;4.17;3.97;;;;;;;;;;5072576;28;20814;-57
2022/09/09 01:14:57;;;;;;;4.50;4.10;;;;;;;;;;5072416;28;20796;-57
2022/09/09 01:17:27;;;;;;;6.47;4.10;;;;;;;;;;5072766;28;20450;-57
2022/09/09 01:20:02;;;;;;;4.93;4.50;;;;;;;;;;5072552;28;20447;-57
2022/09/09 01:22:35;;;;;;;4.03;3.83;;;;;;;;;;5072523;28;20781;-58
2022/09/09 01:25:19;;;;;;;4.03;3.83;;;;;;;;;;5072585;28;20452;-57
2022/09/09 01:27:49;;;;;;;3.93;3.63;;;;;;;;;;5076457;28;20504;-58
2022/09/09 01:30:17;;;;;;;4.57;4.27;;;;;;;;;;5075980;28;20862;-57
2022/09/09 01:32:46;;;;;;;3.70;3.50;;;;;;;;;;5076249;28;20452;-57
2022/09/09 01:35:16;;;;;;;4.97;4.67;;;;;;;;;;5076173;28;20470;-57
2022/09/09 01:37:43;;;;;;;3.80;3.50;;;;;;;;;;5076061;28;20451;-57
2022/09/09 01:40:10;;;;;;;4.80;4.40;;;;;;;;;;5076444;28;20504;-57
2022/09/09 01:42:37;;;;;;;4.07;3.77;;;;;;;;;;5076131;28;20508;-57
2022/09/09 01:45:07;;;;;;;4.17;3.97;;;;;;;;;;5076085;28;20504;-58
2022/09/09 01:47:34;;;;;;;4.80;4.40;;;;;;;;;;5075825;28;20966;-56
2022/09/09 01:50:01;;;;;;;4.93;4.63;;;;;;;;;;5075850;28;20478;-58
2022/09/09 01:52:28;;;;;;;5.83;5.27;;;;;;;;;;5075811;28;20451;-58
2022/09/09 01:54:55;;;;;;;4.70;4.33;;;;;;;;;;5076007;28;20452;-57
2022/09/09 01:57:25;;;;;;;5.53;5.23;;;;;;;;;;5075742;28;20500;-58
2022/09/09 01:59:59;;;;;;;4.93;4.57;;;;;;;;;;5075704;28;20784;-57
2022/09/09 02:02:29;;;;;;;5.40;4.63;;;;;;;;;;5075673;28;20853;-57
2022/09/09 02:04:58;;;;;;;4.63;4.30;;;;;;;;;;5075536;28;20468;-57
2022/09/09 02:07:32;;;;;;;5.13;4.17;;;;;;;;;;5075689;28;20492;-57
2022/09/09 02:10:02;;;;;;;4.80;4.57;;;;;;;;;;5075553;28;20865;-58
2022/09/09 02:12:29;;;;;;;4.17;3.50;;;;;;;;;;5075450;28;20451;-57
2022/09/09 02:14:57;;;;;;;3.93;3.73;;;;;;;;;;5075397;28;20447;-57
2022/09/09 02:17:27;;;;;;;4.37;4.17;;;;;;;;;;5075235;28;20810;-57
2022/09/09 02:19:58;;;;;;;4.37;4.13;;;;;;;;;;5075359;28;20443;-56
2022/09/09 02:22:26;;;;;;;4.10;3.90;;;;;;;;;;5075266;28;20443;-56
2022/09/09 02:24:55;;;;;;;4.63;4.33;;;;;;;;;;5075190;28;20468;-56
2022/09/09 02:27:22;;;;;;;4.30;4.10;;;;;;;;;;5075062;28;20487;-57
2022/09/09 02:29:50;;;;;;;4.50;4.20;;;;;;;;;;5074656;28;20483;-57
2022/09/09 02:32:19;;;;;;;5.27;4.80;;;;;;;;;;5074734;28;20532;-56
2022/09/09 02:34:47;;;;;;;4.07;3.70;;;;;;;;;;5074881;28;20931;-55
2022/09/09 02:37:17;;;;;;;4.57;4.17;;;;;;;;;;5074709;28;20458;-57
2022/09/09 02:39:44;;;;;;;4.77;4.47;;;;;;;;;;5074885;28;20448;-56
2022/09/09 02:42:11;;;;;;;7.87;4.33;;;;;;;;;;5074876;28;20447;-56
2022/09/09 02:44:38;;;;;;;4.60;4.30;;;;;;;;;;5074992;28;20509;-57
2022/09/09 02:47:20;;;;;;;5.00;4.50;;;;;;;;;;5074928;28;20451;-56
2022/09/09 02:49:53;;;;;;;4.63;4.30;;;;;;;;;;5072527;28;20475;-55
2022/09/09 02:52:25;;;;;;;5.17;4.63;;;;;;;;;;5074637;28;20506;-56
2022/09/09 02:54:57;;;;;;;11.03;4.40;;;;;;;;;;5074631;28;20451;-57
2022/09/09 02:57:25;;;;;;;4.63;4.30;;;;;;;;;;5074678;28;20451;-56
2022/09/09 02:59:52;;;;;;;4.70;4.30;;;;;;;;;;5074594;28;20460;-55
2022/09/09 03:02:19;;;;;;;4.50;4.20;;;;;;;;;;5074527;28;20453;-56
2022/09/09 03:04:50;;;;;;;4.83;4.53;;;;;;;;;;5074510;28;20509;-56
2022/09/09 03:07:17;;;;;;;4.23;3.83;;;;;;;;;;5074327;28;20463;-56
2022/09/09 03:09:46;;;;;;;4.90;4.50;;;;;;;;;;5074051;28;20483;-56
2022/09/09 03:12:13;;;;;;;4.87;4.30;;;;;;;;;;5074386;28;20448;-56
2022/09/09 03:14:40;;;;;;;5.17;4.77;;;;;;;;;;5074326;28;20447;-55
2022/09/09 03:17:09;;;;;;;4.43;4.13;;;;;;;;;;5074243;28;20452;-55
2022/09/09 03:19:36;;;;;;;4.90;4.60;;;;;;;;;;5074034;28;20800;-56
2022/09/09 03:22:04;;;;;;;5.17;4.67;;;;;;;;;;5074091;28;20448;-57
2022/09/09 03:24:31;;;;;;;4.70;4.40;;;;;;;;;;5074200;28;20455;-57
2022/09/09 03:26:59;;;;;;;5.43;5.10;;;;;;;;;;5074101;28;20449;-57
2022/09/09 03:29:26;;;;;;;5.20;4.80;;;;;;;;;;5073938;28;20470;-57
2022/09/09 03:31:53;;;;;;;5.43;5.03;;;;;;;;;;5073850;28;20475;-55
2022/09/09 03:34:20;;;;;;;4.90;4.60;;;;;;;;;;5073717;28;20826;-56
2022/09/09 03:36:49;;;;;;;6.27;5.67;;;;;;;;;;5074013;28;20577;-57
2022/09/09 03:39:15;;;;;;;5.80;5.13;;;;;;;;;;5073883;28;21006;-57
2022/09/09 03:41:45;;;;;;;5.60;5.13;;;;;;;;;;5074347;28;20542;-57
2022/09/09 03:44:13;;;;;;;5.70;5.30;;;;;;;;;;5073672;28;21014;-56
2022/09/09 03:46:40;;;;;;;5.47;4.97;;;;;;;;;;5073589;28;20538;-56
2022/09/09 03:49:07;;;;;;;6.17;5.73;;;;;;;;;;5072626;28;20571;-57
2022/09/09 03:51:36;;;;;;;5.60;5.20;;;;;;;;;;5073596;28;20487;-57
2022/09/09 03:54:04;;;;;;;6.30;5.23;;;;;;;;;;5073780;28;20497;-57
2022/09/09 03:56:32;;;;;;;5.33;4.90;;;;;;;;;;5073539;28;20657;-57
2022/09/09 03:58:59;;;;;;;5.50;4.90;;;;;;;;;;5073354;28;20470;-56
2022/09/09 04:01:27;;;;;;;5.43;4.90;;;;;;;;;;5073202;28;20454;-57
2022/09/09 04:03:57;;;;;;;4.83;4.53;;;;;;;;;;5073441;28;20834;-55
2022/09/09 04:06:23;;;;;;;5.40;4.90;;;;;;;;;;5073393;28;20443;-58
2022/09/09 04:08:52;;;;;;;4.50;4.20;;;;;;;;;;5073322;28;20451;-57
2022/09/09 04:11:19;;;;;;;4.60;4.20;;;;;;;;;;5073048;28;20485;-56
2022/09/09 04:13:46;;;;;;;6.27;5.87;;;;;;;;;;5073198;28;20528;-57
2022/09/09 04:16:14;;;;;;;5.27;4.77;;;;;;;;;;5072991;28;20554;-56
2022/09/09 04:18:42;;;;;;;9.43;4.90;;;;;;;;;;5073204;28;20455;-56
2022/09/09 04:21:11;;;;;;;6.60;5.50;;;;;;;;;;5073296;28;20451;-57
2022/09/09 04:23:38;;;;;;;4.07;3.83;;;;;;;;;;5073104;28;20475;-57
2022/09/09 04:26:06;;;;;;;5.43;4.97;;;;;;;;;;5073187;28;20550;-57
2022/09/09 04:28:35;;;;;;;6.17;5.03;;;;;;;;;;5072862;28;20447;-58
2022/09/09 04:31:05;;;;;;;5.20;4.90;;;;;;;;;;5072961;28;20579;-57
2022/09/09 04:33:32;;;;;;;4.70;4.30;;;;;;;;;;5073097;28;20479;-57
2022/09/09 04:36:00;;;;;;;5.17;4.80;;;;;;;;;;5072932;28;20888;-55
2022/09/09 04:38:27;;;;;;;6.50;4.93;;;;;;;;;;5072870;28;20524;-57
2022/09/09 04:40:54;;;;;;;8.83;4.97;;;;;;;;;;5072812;28;20447;-57
2022/09/09 04:43:22;;;;;;;5.37;4.97;;;;;;;;;;5072712;28;20455;-58
2022/09/09 04:45:49;;;;;;;8.77;5.00;;;;;;;;;;5072991;28;20447;-54
2022/09/09 04:48:17;;;;;;;7.30;5.30;;;;;;;;;;5072785;28;20562;-55
2022/09/09 04:50:43;;;;;;;9.57;5.57;;;;;;;;;;5072665;28;20483;-54
2022/09/09 04:53:12;;;;;;;4.90;4.60;;;;;;;;;;5072625;28;20465;-55
2022/09/09 04:55:39;;;;;;;6.27;5.30;;;;;;;;;;5072530;28;20974;-57
2022/09/09 04:58:06;;;;;;;6.10;5.50;;;;;;;;;;5072684;28;20993;-56
2022/09/09 05:00:33;;;;;;;6.43;5.50;;;;;;;;;;5073771;28;20550;-57
2022/09/09 05:03:03;;;;;;;10.20;5.90;;;;;;;;;;5076804;28;20810;-57
2022/09/09 05:05:31;;;;;;;8.17;4.87;;;;;;;;;;5076774;28;20458;-57
2022/09/09 05:08:02;;;;;;;13.20;6.30;;;;;;;;;;5076527;28;20454;-55
2022/09/09 05:10:30;;;;;;;6.23;5.73;;;;;;;;;;5076208;28;20558;-55
2022/09/09 05:12:57;;;;;;;6.43;5.67;;;;;;;;;;5076408;28;20943;-57
2022/09/09 05:15:24;;;;;;;6.10;5.60;;;;;;;;;;5076524;28;20447;-55
2022/09/09 05:17:52;;;;;;;11.67;6.13;;;;;;;;;;5076577;28;20541;-56
2022/09/09 05:20:19;;;;;;;11.60;6.50;;;;;;;;;;5076383;28;20457;-56
2022/09/09 05:22:46;;;;;;;16.50;7.53;;;;;;;;;;5076106;28;20947;-56
2022/09/09 05:25:13;;;;;;;7.50;6.70;;;;;;;;;;5076372;28;20443;-56
2022/09/09 05:27:42;;;;;;;10.23;6.40;;;;;;;;;;5076318;28;20443;-55
2022/09/09 05:30:09;;;;;;;11.03;6.30;;;;;;;;;;5076065;28;20485;-55
2022/09/09 05:32:36;;;;;;;6.53;5.70;;;;;;;;;;5076160;28;20893;-55
2022/09/09 05:35:03;;;;;;;8.43;6.77;;;;;;;;;;5075989;28;20466;-56
2022/09/09 05:37:32;;;;;;;8.27;6.13;;;;;;;;;;5075765;28;20450;-56
2022/09/09 05:40:00;;;;;;;6.00;5.40;;;;;;;;;;5076026;28;20767;-55
2022/09/09 05:42:30;;;;;;;8.67;5.63;;;;;;;;;;5075683;28;20447;-57
2022/09/09 05:44:59;;;;;;;10.80;5.77;;;;;;;;;;5076048;28;20447;-58
2022/09/09 05:47:27;;;;;;;8.73;5.73;;;;;;;;;;5075475;28;20447;-57
2022/09/09 05:49:54;;;;;;;5.60;5.20;;;;;;;;;;5075571;28;20520;-55
2022/09/09 05:52:22;;;;;;;8.60;6.00;;;;;;;;;;5075836;28;20451;-58
2022/09/09 05:54:49;;;;;;;6.90;6.30;;;;;;;;;;5075802;28;20451;-56
2022/09/09 05:57:16;;;;;;;7.70;6.67;;;;;;;;;;5075509;28;20562;-57
2022/09/09 05:59:43;;;;;;;9.57;7.70;;;;;;;;;;5075503;28;20451;-55
2022/09/09 06:02:12;;;;;;;7.10;5.93;;;;;;;;;;5075349;28;20475;-58
2022/09/09 06:04:39;;;;;;;9.20;6.57;;;;;;;;;;5075223;28;20444;-56
2022/09/09 06:07:06;;;;;;;7.33;5.77;;;;;;;;;;5075475;28;20459;-55
2022/09/09 06:09:33;;;;;;;5.07;4.67;;;;;;;;;;5075298;28;20478;-57
2022/09/09 06:12:00;;;;;;;6.73;5.10;;;;;;;;;;5074759;28;20454;-55
2022/09/09 06:14:27;;;;;;;6.67;5.37;;;;;;;;;;5075222;28;20448;-55
2022/09/09 06:16:54;;;;;;;4.77;4.27;;;;;;;;;;5075384;28;20448;-56
2022/09/09 06:19:24;;;;;;;4.40;4.00;;;;;;;;;;5075395;28;20448;-57
2022/09/09 06:21:51;;;;;;;4.23;3.80;;;;;;;;;;5075266;28;20537;-57
2022/09/09 06:24:19;;;;;;;5.83;3.97;;;;;;;;;;5075254;28;20497;-57
2022/09/09 06:26:46;;;;;;;6.13;3.27;;;;;;;;;;5075048;28;20451;-57
2022/09/09 06:29:13;;;;;;;3.93;3.60;;;;;;;;;;5074890;28;20448;-58
2022/09/09 06:31:41;;;;;;;4.73;4.10;;;;;;;;;;5075037;28;20990;-57
2022/09/09 06:34:08;;;;;;;8.10;4.07;;;;;;;;;;5075061;28;20453;-56
2022/09/09 06:36:38;;;;;;;6.23;3.37;;;;;;;;;;5075042;28;20457;-57
2022/09/09 06:39:06;;;;;;;3.87;3.10;;;;;;;;;;5074850;28;20451;-57
2022/09/09 06:41:33;;;;;;;4.97;3.00;;;;;;;;;;5074733;28;20470;-57
2022/09/09 06:44:01;;;;;;;3.10;2.90;;;;;;;;;;5074578;28;20783;-58
2022/09/09 06:46:29;;;;;;;6.00;3.20;;;;;;;;;;5074921;28;20447;-58
2022/09/09 06:48:59;;;;;;;3.53;3.23;;;;;;;;;;5074502;28;20482;-57
2022/09/09 06:51:27;;;;;;;4.17;3.03;;;;;;;;;;5074510;28;20496;-57
2022/09/09 06:53:56;;;;;;;3.40;2.60;;;;;;;;;;5074494;28;20448;-58
2022/09/09 06:56:24;;;;;;;3.63;2.83;;;;;;;;;;5074441;28;20479;-56
2022/09/09 06:58:51;;;;;;;3.20;2.70;;;;;;;;;;5074595;28;20961;-57
2022/09/09 07:01:19;;;;;;;3.03;2.70;;;;;;;;;;5074512;28;20875;-57
2022/09/09 07:03:47;;;;;;;6.33;2.60;;;;;;;;;;5074371;28;20443;-57
2022/09/09 07:06:16;;;;;;;4.97;2.37;;;;;;;;;;5077193;28;20457;-58
2022/09/09 07:08:43;;;;;;;3.77;3.43;;;;;;;;;;5074248;28;20542;-57
2022/09/09 07:11:12;;;;;;;2.20;2.10;;;;;;;;;;5073886;28;20482;-57
2022/09/09 07:13:39;;;;;;;3.60;2.70;;;;;;;;;;5073275;28;20802;-57
2022/09/09 07:16:06;;;;;;;5.07;2.63;;;;;;;;;;5074137;28;20449;-58
2022/09/09 07:18:34;;;;;;;2.80;2.60;;;;;;;;;;5074071;28;20780;-57
2022/09/09 07:21:02;;;;;;;2.80;2.33;;;;;;;;;;5073886;28;20448;-60
2022/09/09 07:23:29;;;;;;;9.23;2.80;;;;;;;;;;5072941;28;20542;-61
2022/09/09 07:25:57;;;;;;;3.03;1.80;;;;;;;;;;5073689;28;20439;-61
2022/09/09 07:28:26;;;;;;;4.50;2.20;;;;;;;;;;5073994;28;20529;-61
2022/09/09 07:30:56;;;;;;;2.60;2.13;;;;;;;;;;5073765;28;20478;-60
2022/09/09 07:33:23;;;;;;;3.47;2.03;;;;;;;;;;5073792;28;20483;-61
2022/09/09 07:35:50;;;;;;;3.97;2.00;;;;;;;;;;5073622;28;20452;-60
2022/09/09 07:38:18;;;;;;;7.97;2.10;;;;;;;;;;5073511;28;20447;-60
2022/09/09 07:40:45;;;;;;;3.80;1.97;;;;;;;;;;5073702;28;20865;-61
2022/09/09 07:43:12;;;;;;;2.63;2.00;;;;;;;;;;5073681;28;20796;-61
2022/09/09 07:45:41;;;;;;;4.93;1.80;;;;;;;;;;5073352;28;20931;-60
2022/09/09 07:48:08;;;;;;;1.90;1.80;;;;;;;;;;5073369;28;20482;-60
2022/09/09 07:50:36;;;;;;;2.07;1.90;;;;;;;;;;5073143;28;20827;-61
2022/09/09 07:53:05;;;;;;;1.83;1.57;;;;;;;;;;5073631;28;20539;-60
2022/09/09 07:55:32;;;;;;;4.73;2.03;;;;;;;;;;5073663;28;20447;-60
2022/09/09 07:57:59;;;;;;;7.23;1.90;;;;;;;;;;5073504;28;20459;-60
2022/09/09 08:00:28;;;;;;;3.47;2.03;;;;;;;;;;5073221;28;20788;-60
2022/09/09 08:02:56;;;;;;;1.60;1.50;;;;;;;;;;5073171;28;20530;-60
2022/09/09 08:05:23;;;;;;;2.07;1.50;;;;;;;;;;5073229;28;20458;-61
2022/09/09 08:07:50;;;;;;;2.73;2.03;;;;;;;;;;5073095;28;20500;-61
2022/09/09 08:10:18;;;;;;;3.20;1.63;;;;;;;;;;5073069;28;20538;-61
2022/09/09 08:12:45;;;;;;;4.27;1.67;;;;;;;;;;5073175;28;20447;-60
2022/09/09 08:15:12;;;;;;;3.53;1.50;;;;;;;;;;5073329;28;20457;-61
2022/09/09 08:17:39;;;;;;;13.20;2.93;;;;;;;;;;5073092;28;20447;-60
2022/09/09 08:20:08;;;;;;;1.50;1.40;;;;;;;;;;5072944;28;20479;-60
2022/09/09 08:22:36;;;;;;;2.40;1.50;;;;;;;;;;5073075;28;20461;-60
2022/09/09 08:25:06;;;;;;;2.40;1.50;;;;;;;;;;5072979;28;20455;-60
2022/09/09 08:27:33;;;;;;;2.67;1.70;;;;;;;;;;5072874;28;20808;-60
2022/09/09 08:30:00;;;;;;;3.17;1.47;;;;;;;;;;5073035;28;20443;-60
2022/09/09 08:32:27;;;;;;;4.00;2.00;;;;;;;;;;5072499;28;20483;-60
2022/09/09 08:34:54;;;;;;;3.23;1.60;;;;;;;;;;5072470;28;20451;-60
2022/09/09 08:37:22;;;;;;;3.03;1.90;;;;;;;;;;5072707;28;20910;-61
2022/09/09 08:39:50;;;;;;;4.73;1.67;;;;;;;;;;5072588;28;20454;-61
2022/09/09 08:42:25;;;;;;;4.13;1.90;;;;;;;;;;5071112;28;20972;-61
2022/09/09 08:45:00;;;;;;;2.20;1.37;;;;;;;;;;5072671;28;20447;-61
2022/09/09 08:47:32;;;;;;;3.77;1.60;;;;;;;;;;5069710;28;20462;-61
2022/09/09 08:50:04;;;;;;;1.80;1.37;;;;;;;;;;5083882;28;20454;-61
2022/09/09 08:52:34;;;;;;;2.53;1.60;;;;;;;;;;5072326;28;20479;-60
2022/09/09 08:55:05;;;;;;;2.73;1.87;;;;;;;;;;5072447;28;20946;-60
2022/09/09 08:57:32;;;;;;;5.33;1.50;;;;;;;;;;5072320;28;20504;-64
2022/09/09 08:59:59;;;;;;;3.33;1.93;;;;;;;;;;5072180;28;20490;-57
2022/09/09 09:02:29;;;;;;;4.27;1.90;;;;;;;;;;5072599;28;20508;-55
2022/09/09 09:05:00;;;;;;;10.90;2.20;;;;;;;;;;5072507;28;20443;-59
2022/09/09 09:07:33;;;;;;;3.73;1.40;;;;;;;;;;5072483;28;20449;-57
2022/09/09 09:10:05;;;;;;;2.57;1.43;;;;;;;;;;5072108;28;20444;-59
2022/09/09 09:12:36;;;;;;;1.60;1.20;;;;;;;;;;5071804;28;20475;-58
2022/09/09 09:15:03;;;;;;;2.70;1.50;;;;;;;;;;5071905;28;20443;-58
2022/09/09 09:17:33;;;;;;;4.83;2.00;;;;;;;;;;5072168;28;20462;-58
2022/09/09 09:20:00;;;;;;;3.00;1.70;;;;;;;;;;5072297;28;20530;-58
2022/09/09 09:22:33;;;;;;;2.40;1.27;;;;;;;;;;5071892;28;20811;-59
2022/09/09 09:25:04;;;;;;;3.77;1.93;;;;;;;;;;5071855;28;20454;-58
2022/09/09 09:27:33;;;;;;;2.73;1.37;;;;;;;;;;5069000;28;20439;-58
2022/09/09 09:30:01;;;;;;;3.77;1.50;;;;;;;;;;5070903;28;20832;-59
2022/09/09 09:32:29;;;;;;;4.03;1.60;;;;;;;;;;5070766;28;20485;-58
2022/09/09 09:34:57;;;;;;;3.23;1.90;;;;;;;;;;5070735;28;20447;-58
2022/09/09 09:37:28;;;;;;;2.40;2.20;;;;;;;;;;5070587;28;20446;-58
2022/09/09 09:39:55;;;;;;;2.87;1.50;;;;;;;;;;5071655;28;20442;-59
2022/09/09 09:42:24;;;;;;;2.40;1.40;;;;;;;;;;5071829;28;20469;-58
2022/09/09 09:44:51;;;;;;;2.10;1.90;;;;;;;;;;5071689;28;20938;-58
2022/09/09 09:47:19;;;;;;;5.60;2.20;;;;;;;;;;5073883;28;20609;-59
2022/09/09 09:49:53;;;;;;;2.30;1.30;;;;;;;;;;5075885;28;20764;-59
2022/09/09 09:52:23;;;;;;;2.93;1.40;;;;;;;;;;5075560;28;20566;-59
2022/09/09 09:54:50;;;;;;;5.10;1.83;;;;;;;;;;5075582;28;21001;-59
2022/09/09 09:57:18;;;;;;;1.37;1.27;;;;;;;;;;5064273;28;20444;-59
2022/09/09 09:59:47;;;;;;;3.80;1.30;;;;;;;;;;5054730;28;20816;-59
2022/09/09 10:02:19;;;;;;;2.53;1.50;;;;;;;;;;5055318;28;20804;-59
2022/09/09 10:04:46;;;;;;;6.37;1.80;;;;;;;;;;5055315;28;20959;-59
2022/09/09 10:07:13;;;;;;;2.70;1.30;;;;;;;;;;5054611;28;20535;-59
2022/09/09 10:09:41;;;;;;;1.60;1.17;;;;;;;;;;5055505;28;20566;-59
2022/09/09 10:12:14;;;;;;;2.40;1.30;;;;;;;;;;5055060;28;20511;-59
2022/09/09 10:14:47;;;;;;;2.83;1.57;;;;;;;;;;5055487;28;20884;-59
2022/09/09 10:17:20;;;;;;;4.83;1.57;;;;;;;;;;5055389;28;20539;-59
2022/09/09 10:19:55;;;;;;;3.63;1.63;;;;;;;;;;5055252;28;20479;-59
2022/09/09 10:22:27;;;;;;;1.87;1.23;;;;;;;;;;5055227;28;20817;-59
2022/09/09 10:25:12;;;;;;;2.50;1.47;;;;;;;;;;5055079;28;20452;-59
2022/09/09 10:27:46;;;;;;;3.53;1.47;;;;;;;;;;5054967;28;20816;-59
2022/09/09 10:30:16;;;;;;;1.87;0.90;;;;;;;;;;5055182;28;20535;-59
2022/09/09 10:32:47;;;;;;;3.97;1.30;;;;;;;;;;5054942;28;20571;-59
2022/09/09 10:35:21;;;;;;;6.30;1.40;;;;;;;;;;5054885;28;20544;-59
2022/09/09 10:37:54;;;;;;;1.00;0.90;;;;;;;;;;5055093;28;20862;-59
2022/09/09 10:40:25;;;;;;;3.20;1.50;;;;;;;;;;5054708;28;20961;-59
2022/09/09 10:42:52;;;;;;;3.93;1.10;;;;;;;;;;5054965;28;20445;-59
2022/09/09 10:45:22;;;;;;;4.20;1.40;;;;;;;;;;5054818;28;20536;-59
2022/09/09 10:48:00;;;;;;;2.83;1.10;;;;;;;;;;5054356;28;20874;-59
2022/09/09 10:50:38;;;;;;;3.70;1.47;;;;;;;;;;5054883;28;20453;-59
2022/09/09 10:53:10;;;;;;;2.60;1.30;;;;;;;;;;5054418;28;20480;-59
2022/09/09 10:55:41;;;;;;;1.83;1.20;;;;;;;;;;5054492;28;20955;-58
2022/09/09 10:58:11;;;;;;;2.00;1.10;;;;;;;;;;5054300;28;20452;-59
2022/09/09 11:00:40;;;;;;;1.30;1.20;;;;;;;;;;5054767;28;20845;-59
2022/09/09 11:03:18;;;;;;;2.40;1.17;;;;;;;;;;5054448;28;20956;-59
2022/09/09 11:05:47;;;;;;;1.30;1.10;;;;;;;;;;5054552;28;20523;-59
2022/09/09 11:08:17;;;;;;;4.20;1.23;;;;;;;;;;5054413;28;20474;-59
2022/09/09 11:10:47;;;;;;;3.13;1.40;;;;;;;;;;5054157;28;20453;-58
2022/09/09 11:13:17;;;;;;;1.30;1.20;;;;;;;;;;5054300;28;20575;-59
2022/09/09 11:15:46;;;;;;;5.43;1.00;;;;;;;;;;5054378;28;20448;-59
2022/09/09 11:18:17;;;;;;;2.50;1.30;;;;;;;;;;5054233;28;20536;-59
2022/09/09 11:20:45;;;;;;;1.73;1.40;;;;;;;;;;5054404;28;20458;-59
2022/09/09 11:23:14;;;;;;;2.70;1.30;;;;;;;;;;5053998;28;20547;-59
2022/09/09 11:25:43;;;;;;;1.73;1.17;;;;;;;;;;5054185;28;20452;-59
2022/09/09 11:28:22;;;;;;;2.60;1.17;;;;;;;;;;5054030;28;20454;-59
2022/09/09 11:30:56;;;;;;;2.10;1.27;;;;;;;;;;5053926;28;20486;-59
2022/09/09 11:33:43;;;;;;;3.23;1.40;;;;;;;;;;5053728;28;20494;-59
2022/09/09 11:36:21;;;;;;;2.13;1.20;;;;;;;;;;5054255;28;20532;-58
2022/09/09 11:38:51;;;;;;;2.60;1.90;;;;;;;;;;5053797;28;20452;-58
2022/09/09 11:41:18;;;;;;;2.07;1.40;;;;;;;;;;5053803;28;20452;-59
2022/09/09 11:43:46;;;;;;;3.33;1.73;;;;;;;;;;5054105;28;20458;-58
2022/09/09 11:46:13;;;;;;;1.77;1.00;;;;;;;;;;5053436;28;20483;-59
2022/09/09 11:48:45;;;;;;;3.60;1.30;;;;;;;;;;5053297;28;20475;-59
2022/09/09 11:51:13;;;;;;;1.00;0.80;;;;;;;;;;5053626;28;20452;-59
2022/09/09 11:53:50;;;;;;;6.60;1.33;;;;;;;;;;5053429;28;20551;-59
2022/09/09 11:56:26;;;;;;;1.90;1.10;;;;;;;;;;5053431;28;20435;-59
2022/09/09 11:58:58;;;;;;;2.90;1.30;;;;;;;;;;5053210;28;20451;-59
2022/09/09 12:01:38;;;;;;;2.20;1.70;;;;;;;;;;5053486;28;21191;-59
2022/09/09 12:04:15;;;;;;;1.83;0.90;;;;;;;;;;5053174;28;21028;-59
2022/09/09 12:06:46;;;;;;;3.53;1.10;;;;;;;;;;5053237;28;20854;-59
2022/09/09 12:09:18;;;;;;;4.43;0.90;;;;;;;;;;5052566;28;20452;-59
2022/09/09 12:11:45;;;;;;;2.97;1.10;;;;;;;;;;5053486;28;20471;-59
2022/09/09 12:14:21;;;;;;;3.23;1.00;;;;;;;;;;5053156;28;20453;-59
2022/09/09 12:16:47;;;;;;;2.40;0.97;;;;;;;;;;5053061;28;20511;-59
2022/09/09 12:19:17;;;;;;;3.10;1.23;;;;;;;;;;5053031;28;20454;-59
2022/09/09 12:21:48;;;;;;;1.93;1.73;;;;;;;;;;5053508;28;20539;-58
2022/09/09 12:24:20;;;;;;;3.30;1.50;;;;;;;;;;5053055;28;20560;-59
2022/09/09 12:26:50;;;;;;;3.80;1.60;;;;;;;;;;5052934;28;20448;-59
2022/09/09 12:29:24;;;;;;;5.60;1.47;;;;;;;;;;5052967;28;20535;-59
2022/09/09 12:31:54;;;;;;;2.60;1.07;;;;;;;;;;5052858;28;20452;-59
2022/09/09 12:34:28;;;;;;;3.20;1.33;;;;;;;;;;5053025;28;20793;-59
2022/09/09 12:36:57;;;;;;;4.10;1.87;;;;;;;;;;5052924;28;20467;-59
2022/09/09 12:39:30;;;;;;;1.73;1.20;;;;;;;;;;5052681;28;20444;-58
2022/09/09 12:41:57;;;;;;;1.53;0.97;;;;;;;;;;5052766;28;20459;-58
2022/09/09 12:44:25;;;;;;;4.30;1.73;;;;;;;;;;5052512;28;20514;-58
2022/09/09 12:46:52;;;;;;;2.40;1.10;;;;;;;;;;5052569;28;20452;-58
2022/09/09 12:49:28;;;;;;;1.47;1.03;;;;;;;;;;5052690;28;21058;-59
2022/09/09 12:51:57;;;;;;;1.40;0.80;;;;;;;;;;5052605;28;20452;-59
2022/09/09 12:54:24;;;;;;;4.43;1.40;;;;;;;;;;5052555;28;20853;-59
2022/09/09 12:56:51;;;;;;;2.10;1.23;;;;;;;;;;5052582;28;20472;-59
2022/09/09 12:59:23;;;;;;;2.10;1.17;;;;;;;;;;5052747;28;20852;-59
2022/09/09 13:01:56;;;;;;;2.20;1.20;;;;;;;;;;5052533;28;20452;-59
2022/09/09 13:04:23;;;;;;;1.57;1.13;;;;;;;;;;5052684;28;20454;-58
2022/09/09 13:06:52;;;;;;;3.17;1.43;;;;;;;;;;5052742;28;20455;-59
2022/09/09 13:09:20;;;;;;;2.40;1.10;;;;;;;;;;5052491;28;20452;-59
2022/09/09 13:11:48;;;;;;;3.27;1.50;;;;;;;;;;5052288;28;20444;-59
2022/09/09 13:14:19;;;;;;;2.13;1.10;;;;;;;;;;5052518;28;20452;-59
2022/09/09 13:16:56;;;;;;;3.70;1.10;;;;;;;;;;5052484;28;20859;-59
2022/09/09 13:19:25;;;;;;;2.90;1.20;;;;;;;;;;5052496;28;20544;-59
2022/09/09 13:21:53;;;;;;;1.30;0.90;;;;;;;;;;5053983;28;20518;-59
2022/09/09 13:24:29;;;;;;;1.40;0.90;;;;;;;;;;5056285;28;20452;-58
2022/09/09 13:26:57;;;;;;;2.77;0.93;;;;;;;;;;5056284;28;20505;-58
2022/09/09 13:29:24;;;;;;;0.90;0.80;;;;;;;;;;5056166;28;20467;-58
2022/09/09 13:31:53;;;;;;;1.60;0.90;;;;;;;;;;5056136;28;20562;-58
2022/09/09 13:34:27;;;;;;;1.73;1.20;;;;;;;;;;5056054;28;20502;-59
2022/09/09 13:36:57;;;;;;;4.97;1.17;;;;;;;;;;5056242;28;20451;-58
2022/09/09 13:39:24;;;;;;;1.27;0.80;;;;;;;;;;5056170;28;20828;-59
2022/09/09 13:41:52;;;;;;;1.87;0.80;;;;;;;;;;5056063;28;20476;-59
2022/09/09 13:44:23;;;;;;;1.40;1.07;;;;;;;;;;5055941;28;20501;-58
2022/09/09 13:47:00;;;;;;;2.60;1.10;;;;;;;;;;5055744;28;20444;-59
2022/09/09 13:49:29;;;;;;;0.90;0.80;;;;;;;;;;5055879;28;20471;-59
2022/09/09 13:52:07;;;;;;;1.97;0.83;;;;;;;;;;5055967;28;20448;-59
2022/09/09 13:54:34;;;;;;;3.03;0.90;;;;;;;;;;5055753;28;20448;-58
2022/09/09 13:57:02;;;;;;;1.67;1.07;;;;;;;;;;5055719;28;20507;-58
2022/09/09 13:59:29;;;;;;;1.70;1.00;;;;;;;;;;5055593;28;20847;-58
2022/09/09 14:01:56;;;;;;;1.63;0.80;;;;;;;;;;5055689;28;20448;-59
2022/09/09 14:04:23;;;;;;;1.07;0.83;;;;;;;;;;5055744;28;20514;-59
2022/09/09 14:06:50;;;;;;;1.40;1.00;;;;;;;;;;5055685;28;20503;-59
2022/09/09 14:09:19;;;;;;;1.27;0.83;;;;;;;;;;5055609;28;20880;-59
2022/09/09 14:11:46;;;;;;;1.97;0.97;;;;;;;;;;5055257;28;20877;-58
2022/09/09 14:14:13;;;;;;;1.57;1.03;;;;;;;;;;5055360;28;20571;-59
2022/09/09 14:16:40;;;;;;;1.83;1.50;;;;;;;;;;5055537;28;20925;-59
2022/09/09 14:19:07;;;;;;;1.20;0.80;;;;;;;;;;5055361;28;20444;-59
2022/09/09 14:21:34;;;;;;;0.90;0.80;;;;;;;;;;5055318;28;20443;-58
2022/09/09 14:24:01;;;;;;;3.20;1.40;;;;;;;;;;5055213;28;20448;-58
2022/09/09 14:26:29;;;;;;;1.10;0.90;;;;;;;;;;5055081;28;20444;-59
2022/09/09 14:28:56;;;;;;;1.73;1.30;;;;;;;;;;5055292;28;20448;-58
2022/09/09 14:31:24;;;;;;;3.33;1.07;;;;;;;;;;5055209;28;20470;-58
2022/09/09 14:33:51;;;;;;;1.33;1.00;;;;;;;;;;5054515;28;21081;-59
2022/09/09 14:36:18;;;;;;;2.37;1.20;;;;;;;;;;5054927;28;20463;-58
2022/09/09 14:38:45;;;;;;;1.20;1.00;;;;;;;;;;5054776;28;20970;-58
2022/09/09 14:41:13;;;;;;;3.17;1.17;;;;;;;;;;5054875;28;20452;-59
2022/09/09 14:43:41;;;;;;;1.80;1.27;;;;;;;;;;5055089;28;20455;-58
2022/09/09 14:46:08;;;;;;;2.97;1.10;;;;;;;;;;5055070;28;20448;-59
2022/09/09 14:48:35;;;;;;;1.60;0.90;;;;;;;;;;5054597;28;20476;-58
2022/09/09 14:51:06;;;;;;;1.30;1.00;;;;;;;;;;5054588;28;20531;-58
2022/09/09 14:53:33;;;;;;;2.00;0.90;;;;;;;;;;5054491;28;20499;-58
2022/09/09 14:56:04;;;;;;;3.70;1.00;;;;;;;;;;5054820;28;20451;-58